sensor_id;sensor_type;location;lat;lon;timestamp;temperature;humidity
1129;DHT22;553;51.038;7.216;2022-08-19T00:01:59;20.20;97.70
1129;DHT22;553;51.038;7.216;2022-08-19T00:04:30;20.20;97.60
1129;DHT22;553;51.038;7.216;2022-08-19T00:06:58;20.20;97.60
1129;DHT22;553;51.038;7.216;2022-08-19T00:09:26;20.20;97.70
1129;DHT22;553;51.038;7.216;2022-08-19T00:11:53;20.20;97.70
1129;DHT22;553;51.038;7.216;2022-08-19T00:14:24;20.20;97.60
1129;DHT22;553;51.038;7.216;2022-08-19T00:16:51;20.10;97.80
1129;DHT22;553;51.038;7.216;2022-08-19T00:19:22;20.00;98.30
1129;DHT22;553;51.038;7.216;2022-08-19T00:21:49;20.00;98.60
1129;DHT22;553;51.038;7.216;2022-08-19T00:24:15;20.00;98.80
1129;DHT22;553;51.038;7.216;2022-08-19T00:26:43;19.90;99.10
1129;DHT22;553;51.038;7.216;2022-08-19T00:29:14;19.90;99.10
1129;DHT22;553;51.038;7.216;2022-08-19T00:31:41;19.90;99.00
1129;DHT22;553;51.038;7.216;2022-08-19T00:34:10;19.90;99.10
1129;DHT22;553;51.038;7.216;2022-08-19T00:36:38;19.90;99.00
1129;DHT22;553;51.038;7.216;2022-08-19T00:39:06;19.90;99.00
1129;DHT22;553;51.038;7.216;2022-08-19T00:41:33;19.90;99.10
1129;DHT22;553;51.038;7.216;2022-08-19T00:44:06;19.90;98.90
1129;DHT22;553;51.038;7.216;2022-08-19T00:46:35;19.90;99.00
1129;DHT22;553;51.038;7.216;2022-08-19T00:49:19;19.80;99.30
1129;DHT22;553;51.038;7.216;2022-08-19T00:51:51;19.90;99.20
1129;DHT22;553;51.038;7.216;2022-08-19T00:54:20;19.90;99.20
1129;DHT22;553;51.038;7.216;2022-08-19T00:56:57;19.80;99.30
1129;DHT22;553;51.038;7.216;2022-08-19T00:59:25;19.70;99.90
1129;DHT22;553;51.038;7.216;2022-08-19T01:02:12;19.60;99.90
1129;DHT22;553;51.038;7.216;2022-08-19T01:04:39;19.50;99.90
1129;DHT22;553;51.038;7.216;2022-08-19T01:07:05;19.50;99.90
1129;DHT22;553;51.038;7.216;2022-08-19T01:09:33;19.50;99.90
1129;DHT22;553;51.038;7.216;2022-08-19T01:12:00;19.40;99.90
1129;DHT22;553;51.038;7.216;2022-08-19T01:14:27;19.50;99.90
1129;DHT22;553;51.038;7.216;2022-08-19T01:16:55;19.40;99.90
1129;DHT22;553;51.038;7.216;2022-08-19T01:19:33;19.30;99.90
1129;DHT22;553;51.038;7.216;2022-08-19T01:24:56;19.40;99.90
1129;DHT22;553;51.038;7.216;2022-08-19T01:27:24;19.40;99.90
1129;DHT22;553;51.038;7.216;2022-08-19T01:29:51;19.40;99.90
1129;DHT22;553;51.038;7.216;2022-08-19T01:32:18;19.40;99.90
1129;DHT22;553;51.038;7.216;2022-08-19T01:35:03;19.40;99.90
1129;DHT22;553;51.038;7.216;2022-08-19T01:37:51;19.40;99.90
1129;DHT22;553;51.038;7.216;2022-08-19T01:40:20;19.40;99.90
1129;DHT22;553;51.038;7.216;2022-08-19T01:42:49;19.30;99.90
1129;DHT22;553;51.038;7.216;2022-08-19T01:45:17;19.30;99.90
1129;DHT22;553;51.038;7.216;2022-08-19T01:47:44;19.30;99.90
1129;DHT22;553;51.038;7.216;2022-08-19T01:50:29;19.30;99.90
1129;DHT22;553;51.038;7.216;2022-08-19T01:52:56;19.20;99.90
1129;DHT22;553;51.038;7.216;2022-08-19T01:55:33;19.20;99.90
1129;DHT22;553;51.038;7.216;2022-08-19T01:58:02;19.10;99.90
1129;DHT22;553;51.038;7.216;2022-08-19T02:00:31;19.00;99.90
1129;DHT22;553;51.038;7.216;2022-08-19T02:02:58;19.00;99.90
1129;DHT22;553;51.038;7.216;2022-08-19T02:05:27;19.10;99.90
1129;DHT22;553;51.038;7.216;2022-08-19T02:07:56;19.10;99.90
1129;DHT22;553;51.038;7.216;2022-08-19T02:10:23;19.10;99.90
1129;DHT22;553;51.038;7.216;2022-08-19T02:12:51;19.10;99.90
1129;DHT22;553;51.038;7.216;2022-08-19T02:15:19;19.00;99.90
1129;DHT22;553;51.038;7.216;2022-08-19T02:17:47;19.00;99.90
1129;DHT22;553;51.038;7.216;2022-08-19T02:20:14;19.00;99.90
1129;DHT22;553;51.038;7.216;2022-08-19T02:22:42;19.00;99.90
1129;DHT22;553;51.038;7.216;2022-08-19T02:25:12;19.00;99.90
1129;DHT22;553;51.038;7.216;2022-08-19T02:27:39;19.00;99.90
1129;DHT22;553;51.038;7.216;2022-08-19T02:30:09;19.00;99.90
1129;DHT22;553;51.038;7.216;2022-08-19T02:32:40;19.10;99.90
1129;DHT22;553;51.038;7.216;2022-08-19T02:35:11;19.00;99.90
1129;DHT22;553;51.038;7.216;2022-08-19T02:37:38;18.90;99.90
1129;DHT22;553;51.038;7.216;2022-08-19T02:40:23;19.00;99.90
1129;DHT22;553;51.038;7.216;2022-08-19T02:42:50;19.00;99.90
1129;DHT22;553;51.038;7.216;2022-08-19T02:45:17;18.90;99.90
1129;DHT22;553;51.038;7.216;2022-08-19T02:47:45;19.00;99.90
1129;DHT22;553;51.038;7.216;2022-08-19T02:50:12;18.90;99.90
1129;DHT22;553;51.038;7.216;2022-08-19T02:52:39;18.90;99.90
1129;DHT22;553;51.038;7.216;2022-08-19T02:55:06;19.00;99.90
1129;DHT22;553;51.038;7.216;2022-08-19T02:57:33;18.90;99.90
1129;DHT22;553;51.038;7.216;2022-08-19T03:00:00;18.80;99.90
1129;DHT22;553;51.038;7.216;2022-08-19T03:02:28;18.80;99.90
1129;DHT22;553;51.038;7.216;2022-08-19T03:04:54;18.80;99.90
1129;DHT22;553;51.038;7.216;2022-08-19T03:07:21;18.80;99.90
1129;DHT22;553;51.038;7.216;2022-08-19T03:09:48;18.80;99.90
1129;DHT22;553;51.038;7.216;2022-08-19T03:12:14;18.90;99.90
1129;DHT22;553;51.038;7.216;2022-08-19T03:14:41;18.80;99.90
1129;DHT22;553;51.038;7.216;2022-08-19T03:17:08;18.70;99.90
1129;DHT22;553;51.038;7.216;2022-08-19T03:19:34;18.60;99.90
1129;DHT22;553;51.038;7.216;2022-08-19T03:22:01;18.30;99.90
1129;DHT22;553;51.038;7.216;2022-08-19T03:24:31;18.10;99.90
1129;DHT22;553;51.038;7.216;2022-08-19T03:26:58;18.20;99.90
1129;DHT22;553;51.038;7.216;2022-08-19T03:29:27;18.10;99.90
1129;DHT22;553;51.038;7.216;2022-08-19T03:31:59;18.10;99.90
1129;DHT22;553;51.038;7.216;2022-08-19T03:34:29;18.00;99.90
1129;DHT22;553;51.038;7.216;2022-08-19T03:36:59;18.00;99.90
1129;DHT22;553;51.038;7.216;2022-08-19T03:39:29;18.00;99.90
1129;DHT22;553;51.038;7.216;2022-08-19T03:41:56;18.00;99.90
1129;DHT22;553;51.038;7.216;2022-08-19T03:44:44;18.10;99.90
1129;DHT22;553;51.038;7.216;2022-08-19T03:47:11;18.00;99.90
1129;DHT22;553;51.038;7.216;2022-08-19T03:49:42;18.10;99.90
1129;DHT22;553;51.038;7.216;2022-08-19T03:52:09;18.20;99.90
1129;DHT22;553;51.038;7.216;2022-08-19T03:54:37;18.20;99.90
1129;DHT22;553;51.038;7.216;2022-08-19T03:57:04;18.10;99.90
1129;DHT22;553;51.038;7.216;2022-08-19T03:59:33;17.80;99.90
1129;DHT22;553;51.038;7.216;2022-08-19T04:02:06;17.80;99.90
1129;DHT22;553;51.038;7.216;2022-08-19T04:04:36;17.80;99.90
1129;DHT22;553;51.038;7.216;2022-08-19T04:07:04;17.90;99.90
1129;DHT22;553;51.038;7.216;2022-08-19T04:09:31;18.00;99.90
1129;DHT22;553;51.038;7.216;2022-08-19T04:11:57;18.00;99.90
1129;DHT22;553;51.038;7.216;2022-08-19T04:14:29;18.00;99.90
1129;DHT22;553;51.038;7.216;2022-08-19T04:16:57;18.00;99.90
1129;DHT22;553;51.038;7.216;2022-08-19T04:19:25;18.00;99.90
1129;DHT22;553;51.038;7.216;2022-08-19T04:21:53;18.10;99.90
1129;DHT22;553;51.038;7.216;2022-08-19T04:24:22;18.10;99.90
1129;DHT22;553;51.038;7.216;2022-08-19T04:26:49;18.10;99.90
1129;DHT22;553;51.038;7.216;2022-08-19T04:29:21;18.00;99.90
1129;DHT22;553;51.038;7.216;2022-08-19T04:31:51;17.80;99.90
1129;DHT22;553;51.038;7.216;2022-08-19T04:34:22;17.80;99.90
1129;DHT22;553;51.038;7.216;2022-08-19T04:36:51;17.90;99.90
1129;DHT22;553;51.038;7.216;2022-08-19T04:39:25;17.90;99.90
1129;DHT22;553;51.038;7.216;2022-08-19T04:42:13;18.00;99.90
1129;DHT22;553;51.038;7.216;2022-08-19T04:44:58;18.10;99.90
1129;DHT22;553;51.038;7.216;2022-08-19T04:47:25;18.10;99.90
1129;DHT22;553;51.038;7.216;2022-08-19T04:50:12;18.20;99.90
1129;DHT22;553;51.038;7.216;2022-08-19T04:52:39;18.20;99.90
1129;DHT22;553;51.038;7.216;2022-08-19T04:55:10;18.30;99.90
1129;DHT22;553;51.038;7.216;2022-08-19T04:57:37;18.30;99.90
1129;DHT22;553;51.038;7.216;2022-08-19T05:00:08;18.30;99.90
1129;DHT22;553;51.038;7.216;2022-08-19T05:02:35;18.30;99.90
1129;DHT22;553;51.038;7.216;2022-08-19T05:05:02;18.30;99.90
1129;DHT22;553;51.038;7.216;2022-08-19T05:07:29;18.30;99.90
1129;DHT22;553;51.038;7.216;2022-08-19T05:09:55;18.40;99.90
1129;DHT22;553;51.038;7.216;2022-08-19T05:12:25;18.40;99.90
1129;DHT22;553;51.038;7.216;2022-08-19T05:14:56;18.50;99.90
1129;DHT22;553;51.038;7.216;2022-08-19T05:17:24;18.50;99.90
1129;DHT22;553;51.038;7.216;2022-08-19T05:19:54;18.50;99.90
1129;DHT22;553;51.038;7.216;2022-08-19T05:22:41;18.50;99.90
1129;DHT22;553;51.038;7.216;2022-08-19T05:25:11;18.50;99.90
1129;DHT22;553;51.038;7.216;2022-08-19T05:27:40;18.50;99.90
1129;DHT22;553;51.038;7.216;2022-08-19T05:30:08;18.60;99.90
1129;DHT22;553;51.038;7.216;2022-08-19T05:32:35;18.60;99.90
1129;DHT22;553;51.038;7.216;2022-08-19T05:35:04;18.70;99.90
1129;DHT22;553;51.038;7.216;2022-08-19T05:37:30;18.70;99.90
1129;DHT22;553;51.038;7.216;2022-08-19T05:39:57;18.60;99.90
1129;DHT22;553;51.038;7.216;2022-08-19T05:42:24;18.60;99.90
1129;DHT22;553;51.038;7.216;2022-08-19T05:44:51;18.70;99.90
1129;DHT22;553;51.038;7.216;2022-08-19T05:47:18;18.70;99.90
1129;DHT22;553;51.038;7.216;2022-08-19T05:49:47;18.70;99.90
1129;DHT22;553;51.038;7.216;2022-08-19T05:52:15;18.80;99.90
1129;DHT22;553;51.038;7.216;2022-08-19T05:54:45;18.80;99.90
1129;DHT22;553;51.038;7.216;2022-08-19T05:57:18;18.90;99.90
1129;DHT22;553;51.038;7.216;2022-08-19T05:59:45;18.90;99.90
1129;DHT22;553;51.038;7.216;2022-08-19T06:02:12;18.90;99.90
1129;DHT22;553;51.038;7.216;2022-08-19T06:04:39;19.00;99.90
1129;DHT22;553;51.038;7.216;2022-08-19T06:07:09;18.90;99.90
1129;DHT22;553;51.038;7.216;2022-08-19T06:09:39;19.00;99.90
1129;DHT22;553;51.038;7.216;2022-08-19T06:12:06;19.00;99.90
1129;DHT22;553;51.038;7.216;2022-08-19T06:14:34;19.00;99.90
1129;DHT22;553;51.038;7.216;2022-08-19T06:17:06;19.00;99.90
1129;DHT22;553;51.038;7.216;2022-08-19T06:19:33;19.00;99.90
1129;DHT22;553;51.038;7.216;2022-08-19T06:22:06;19.10;99.90
1129;DHT22;553;51.038;7.216;2022-08-19T06:24:33;19.10;99.90
1129;DHT22;553;51.038;7.216;2022-08-19T06:27:02;19.20;99.90
1129;DHT22;553;51.038;7.216;2022-08-19T06:29:29;19.30;99.90
1129;DHT22;553;51.038;7.216;2022-08-19T06:31:58;19.30;99.90
1129;DHT22;553;51.038;7.216;2022-08-19T06:34:27;19.30;99.90
1129;DHT22;553;51.038;7.216;2022-08-19T06:36:55;19.30;99.90
1129;DHT22;553;51.038;7.216;2022-08-19T06:39:25;19.40;99.90
1129;DHT22;553;51.038;7.216;2022-08-19T06:41:55;19.50;99.90
1129;DHT22;553;51.038;7.216;2022-08-19T06:44:30;19.60;99.90
1129;DHT22;553;51.038;7.216;2022-08-19T06:47:13;19.70;99.90
1129;DHT22;553;51.038;7.216;2022-08-19T06:49:57;19.90;99.90
1129;DHT22;553;51.038;7.216;2022-08-19T06:52:33;19.90;99.90
1129;DHT22;553;51.038;7.216;2022-08-19T06:55:04;20.00;99.90
1129;DHT22;553;51.038;7.216;2022-08-19T06:57:33;20.00;99.90
1129;DHT22;553;51.038;7.216;2022-08-19T07:00:00;20.10;99.90
1129;DHT22;553;51.038;7.216;2022-08-19T07:02:27;20.10;99.90
1129;DHT22;553;51.038;7.216;2022-08-19T07:04:54;20.20;99.90
1129;DHT22;553;51.038;7.216;2022-08-19T07:07:24;20.30;99.90
1129;DHT22;553;51.038;7.216;2022-08-19T07:09:51;20.30;99.90
1129;DHT22;553;51.038;7.216;2022-08-19T07:12:29;20.40;99.90
1129;DHT22;553;51.038;7.216;2022-08-19T07:15:00;20.60;99.90
1129;DHT22;553;51.038;7.216;2022-08-19T07:17:27;20.90;99.90
1129;DHT22;553;51.038;7.216;2022-08-19T07:19:54;21.00;99.90
1129;DHT22;553;51.038;7.216;2022-08-19T07:22:22;20.90;99.90
1129;DHT22;553;51.038;7.216;2022-08-19T07:24:51;21.00;99.90
1129;DHT22;553;51.038;7.216;2022-08-19T07:27:19;21.10;99.90
1129;DHT22;553;51.038;7.216;2022-08-19T07:29:52;21.30;99.90
1129;DHT22;553;51.038;7.216;2022-08-19T07:32:23;21.50;99.90
1129;DHT22;553;51.038;7.216;2022-08-19T07:34:52;21.70;99.90
1129;DHT22;553;51.038;7.216;2022-08-19T07:37:19;21.70;99.90
1129;DHT22;553;51.038;7.216;2022-08-19T07:39:45;21.80;99.90
1129;DHT22;553;51.038;7.216;2022-08-19T07:42:12;21.70;99.90
1129;DHT22;553;51.038;7.216;2022-08-19T07:44:40;21.70;99.90
1129;DHT22;553;51.038;7.216;2022-08-19T07:47:15;21.90;99.90
1129;DHT22;553;51.038;7.216;2022-08-19T07:50:05;21.90;99.90
1129;DHT22;553;51.038;7.216;2022-08-19T07:52:33;22.10;99.50
1129;DHT22;553;51.038;7.216;2022-08-19T07:55:03;22.30;98.90
1129;DHT22;553;51.038;7.216;2022-08-19T07:57:30;22.40;99.30
1129;DHT22;553;51.038;7.216;2022-08-19T07:59:57;22.60;98.10
1129;DHT22;553;51.038;7.216;2022-08-19T08:02:24;22.90;97.20
1129;DHT22;553;51.038;7.216;2022-08-19T08:04:50;22.80;97.60
1129;DHT22;553;51.038;7.216;2022-08-19T08:07:36;22.90;97.70
1129;DHT22;553;51.038;7.216;2022-08-19T08:10:21;23.30;96.30
1129;DHT22;553;51.038;7.216;2022-08-19T08:12:50;23.40;95.30
1129;DHT22;553;51.038;7.216;2022-08-19T08:15:36;23.10;96.20
1129;DHT22;553;51.038;7.216;2022-08-19T08:18:09;23.10;95.70
1129;DHT22;553;51.038;7.216;2022-08-19T08:20:36;23.30;96.20
1129;DHT22;553;51.038;7.216;2022-08-19T08:23:03;23.50;95.70
1129;DHT22;553;51.038;7.216;2022-08-19T08:25:48;23.50;95.20
1129;DHT22;553;51.038;7.216;2022-08-19T08:28:17;23.60;94.80
1129;DHT22;553;51.038;7.216;2022-08-19T08:30:45;23.60;94.40
1129;DHT22;553;51.038;7.216;2022-08-19T08:33:21;23.60;94.80
1129;DHT22;553;51.038;7.216;2022-08-19T08:36:04;23.60;94.40
1129;DHT22;553;51.038;7.216;2022-08-19T08:38:32;23.40;95.60
1129;DHT22;553;51.038;7.216;2022-08-19T08:41:31;23.40;95.80
1129;DHT22;553;51.038;7.216;2022-08-19T08:44:03;23.50;95.40
1129;DHT22;553;51.038;7.216;2022-08-19T08:46:51;23.50;95.20
1129;DHT22;553;51.038;7.216;2022-08-19T08:49:50;23.50;95.40
1129;DHT22;553;51.038;7.216;2022-08-19T08:52:33;23.40;95.10
1129;DHT22;553;51.038;7.216;2022-08-19T08:55:09;23.50;94.40
1129;DHT22;553;51.038;7.216;2022-08-19T09:00:15;23.90;94.50
1129;DHT22;553;51.038;7.216;2022-08-19T09:02:43;24.00;92.60
1129;DHT22;553;51.038;7.216;2022-08-19T09:05:17;24.00;93.00
1129;DHT22;553;51.038;7.216;2022-08-19T09:08:07;24.00;93.20
1129;DHT22;553;51.038;7.216;2022-08-19T09:10:51;24.20;92.20
1129;DHT22;553;51.038;7.216;2022-08-19T09:13:32;24.00;91.90
1129;DHT22;553;51.038;7.216;2022-08-19T09:16:21;24.20;91.40
1129;DHT22;553;51.038;7.216;2022-08-19T09:18:56;24.40;90.40
1129;DHT22;553;51.038;7.216;2022-08-19T09:21:25;24.50;89.20
1129;DHT22;553;51.038;7.216;2022-08-19T09:23:56;24.50;89.00
1129;DHT22;553;51.038;7.216;2022-08-19T09:26:25;24.50;88.50
1129;DHT22;553;51.038;7.216;2022-08-19T09:29:13;24.30;88.90
1129;DHT22;553;51.038;7.216;2022-08-19T09:31:39;24.10;90.50
1129;DHT22;553;51.038;7.216;2022-08-19T09:34:06;24.30;90.60
1129;DHT22;553;51.038;7.216;2022-08-19T09:36:47;24.60;89.60
1129;DHT22;553;51.038;7.216;2022-08-19T09:39:16;24.70;88.60
1129;DHT22;553;51.038;7.216;2022-08-19T09:41:43;24.80;87.70
1129;DHT22;553;51.038;7.216;2022-08-19T09:44:14;24.70;87.90
1129;DHT22;553;51.038;7.216;2022-08-19T09:46:41;24.90;87.50
1129;DHT22;553;51.038;7.216;2022-08-19T09:49:08;25.10;86.20
1129;DHT22;553;51.038;7.216;2022-08-19T09:51:35;25.20;84.90
1129;DHT22;553;51.038;7.216;2022-08-19T09:54:04;25.40;83.90
1129;DHT22;553;51.038;7.216;2022-08-19T09:56:31;25.50;83.90
1129;DHT22;553;51.038;7.216;2022-08-19T09:59:01;25.70;83.90
1129;DHT22;553;51.038;7.216;2022-08-19T10:01:29;25.50;84.40
1129;DHT22;553;51.038;7.216;2022-08-19T10:03:58;25.60;84.50
1129;DHT22;553;51.038;7.216;2022-08-19T10:06:27;25.40;84.10
1129;DHT22;553;51.038;7.216;2022-08-19T10:09:13;25.40;84.60
1129;DHT22;553;51.038;7.216;2022-08-19T10:11:42;25.70;84.30
1129;DHT22;553;51.038;7.216;2022-08-19T10:14:18;25.70;84.10
1129;DHT22;553;51.038;7.216;2022-08-19T10:16:48;25.90;84.20
1129;DHT22;553;51.038;7.216;2022-08-19T10:19:15;26.10;83.10
1129;DHT22;553;51.038;7.216;2022-08-19T10:21:52;26.20;83.30
1129;DHT22;553;51.038;7.216;2022-08-19T10:24:19;26.20;82.80
1129;DHT22;553;51.038;7.216;2022-08-19T10:26:47;26.30;82.50
1129;DHT22;553;51.038;7.216;2022-08-19T10:29:22;26.20;82.90
1129;DHT22;553;51.038;7.216;2022-08-19T10:32:03;26.10;83.30
1129;DHT22;553;51.038;7.216;2022-08-19T10:34:36;26.10;83.40
1129;DHT22;553;51.038;7.216;2022-08-19T10:37:15;25.80;84.20
1129;DHT22;553;51.038;7.216;2022-08-19T10:39:50;26.20;84.20
1129;DHT22;553;51.038;7.216;2022-08-19T10:42:17;26.50;82.40
1129;DHT22;553;51.038;7.216;2022-08-19T10:44:45;26.40;81.30
1129;DHT22;553;51.038;7.216;2022-08-19T10:47:13;26.10;82.00
1129;DHT22;553;51.038;7.216;2022-08-19T10:49:53;26.00;82.70
1129;DHT22;553;51.038;7.216;2022-08-19T10:52:44;26.10;82.80
1129;DHT22;553;51.038;7.216;2022-08-19T10:55:21;26.10;82.00
1129;DHT22;553;51.038;7.216;2022-08-19T10:58:18;26.30;81.10
1129;DHT22;553;51.038;7.216;2022-08-19T11:00:57;26.20;81.10
1129;DHT22;553;51.038;7.216;2022-08-19T11:03:25;26.30;81.00
1129;DHT22;553;51.038;7.216;2022-08-19T11:06:02;26.30;80.10
1129;DHT22;553;51.038;7.216;2022-08-19T11:08:29;26.20;80.00
1129;DHT22;553;51.038;7.216;2022-08-19T11:11:00;26.40;79.80
1129;DHT22;553;51.038;7.216;2022-08-19T11:13:28;26.50;79.10
1129;DHT22;553;51.038;7.216;2022-08-19T11:16:01;26.50;78.20
1129;DHT22;553;51.038;7.216;2022-08-19T11:18:40;26.70;78.40
1129;DHT22;553;51.038;7.216;2022-08-19T11:21:13;26.80;77.60
1129;DHT22;553;51.038;7.216;2022-08-19T11:23:40;26.70;77.60
1129;DHT22;553;51.038;7.216;2022-08-19T11:26:07;26.90;76.80
1129;DHT22;553;51.038;7.216;2022-08-19T11:28:34;27.10;76.40
1129;DHT22;553;51.038;7.216;2022-08-19T11:31:01;27.10;75.70
1129;DHT22;553;51.038;7.216;2022-08-19T11:33:30;27.10;74.70
1129;DHT22;553;51.038;7.216;2022-08-19T11:35:58;27.00;75.70
1129;DHT22;553;51.038;7.216;2022-08-19T11:38:26;27.20;76.20
1129;DHT22;553;51.038;7.216;2022-08-19T11:40:57;27.50;74.10
1129;DHT22;553;51.038;7.216;2022-08-19T11:43:25;27.50;74.30
1129;DHT22;553;51.038;7.216;2022-08-19T11:45:54;27.60;72.70
1129;DHT22;553;51.038;7.216;2022-08-19T11:48:21;27.70;73.70
1129;DHT22;553;51.038;7.216;2022-08-19T11:50:49;27.70;74.70
1129;DHT22;553;51.038;7.216;2022-08-19T11:53:17;27.50;75.30
1129;DHT22;553;51.038;7.216;2022-08-19T11:55:45;27.40;75.00
1129;DHT22;553;51.038;7.216;2022-08-19T11:58:13;27.30;75.60
1129;DHT22;553;51.038;7.216;2022-08-19T12:00:45;27.00;76.20
1129;DHT22;553;51.038;7.216;2022-08-19T12:03:12;26.90;76.20
1129;DHT22;553;51.038;7.216;2022-08-19T12:05:41;27.10;75.80
1129;DHT22;553;51.038;7.216;2022-08-19T12:08:08;27.10;75.50
1129;DHT22;553;51.038;7.216;2022-08-19T12:10:35;27.30;75.80
1129;DHT22;553;51.038;7.216;2022-08-19T12:13:02;27.20;76.00
1129;DHT22;553;51.038;7.216;2022-08-19T12:15:30;27.20;75.80
1129;DHT22;553;51.038;7.216;2022-08-19T12:18:03;27.40;75.50
1129;DHT22;553;51.038;7.216;2022-08-19T12:20:30;27.40;75.30
1129;DHT22;553;51.038;7.216;2022-08-19T12:23:01;27.40;74.80
1129;DHT22;553;51.038;7.216;2022-08-19T12:25:28;27.40;74.00
1129;DHT22;553;51.038;7.216;2022-08-19T12:27:54;27.30;73.00
1129;DHT22;553;51.038;7.216;2022-08-19T12:30:23;27.50;73.00
1129;DHT22;553;51.038;7.216;2022-08-19T12:32:50;27.60;73.30
1129;DHT22;553;51.038;7.216;2022-08-19T12:35:18;27.60;72.80
1129;DHT22;553;51.038;7.216;2022-08-19T12:37:48;27.50;73.30
1129;DHT22;553;51.038;7.216;2022-08-19T12:40:23;27.50;73.60
1129;DHT22;553;51.038;7.216;2022-08-19T12:42:53;27.40;73.90
1129;DHT22;553;51.038;7.216;2022-08-19T12:45:20;27.50;73.60
1129;DHT22;553;51.038;7.216;2022-08-19T12:47:47;27.60;73.60
1129;DHT22;553;51.038;7.216;2022-08-19T12:50:15;27.70;73.00
1129;DHT22;553;51.038;7.216;2022-08-19T12:52:42;27.70;72.50
1129;DHT22;553;51.038;7.216;2022-08-19T12:55:09;27.70;72.30
1129;DHT22;553;51.038;7.216;2022-08-19T12:57:37;27.70;72.40
1129;DHT22;553;51.038;7.216;2022-08-19T13:02:33;27.60;72.40
1129;DHT22;553;51.038;7.216;2022-08-19T13:05:06;27.50;73.00
1129;DHT22;553;51.038;7.216;2022-08-19T13:07:35;27.70;72.20
1129;DHT22;553;51.038;7.216;2022-08-19T13:10:02;27.70;70.70
1129;DHT22;553;51.038;7.216;2022-08-19T13:12:29;27.60;70.50
1129;DHT22;553;51.038;7.216;2022-08-19T13:14:56;27.40;70.10
1129;DHT22;553;51.038;7.216;2022-08-19T13:17:24;27.40;70.60
1129;DHT22;553;51.038;7.216;2022-08-19T13:19:51;27.50;70.20
1129;DHT22;553;51.038;7.216;2022-08-19T13:22:17;27.50;70.30
1129;DHT22;553;51.038;7.216;2022-08-19T13:24:44;27.60;69.90
1129;DHT22;553;51.038;7.216;2022-08-19T13:27:14;27.40;70.60
1129;DHT22;553;51.038;7.216;2022-08-19T13:29:42;27.60;70.40
1129;DHT22;553;51.038;7.216;2022-08-19T13:32:28;27.70;70.00
1129;DHT22;553;51.038;7.216;2022-08-19T13:35:15;27.60;71.30
1129;DHT22;553;51.038;7.216;2022-08-19T13:37:43;27.60;71.80
1129;DHT22;553;51.038;7.216;2022-08-19T13:40:15;27.70;71.70
1129;DHT22;553;51.038;7.216;2022-08-19T13:42:45;27.50;71.80
1129;DHT22;553;51.038;7.216;2022-08-19T13:45:18;27.50;71.20
1129;DHT22;553;51.038;7.216;2022-08-19T13:47:47;27.50;70.90
1129;DHT22;553;51.038;7.216;2022-08-19T13:50:18;27.40;71.10
1129;DHT22;553;51.038;7.216;2022-08-19T13:52:45;27.30;71.30
1129;DHT22;553;51.038;7.216;2022-08-19T13:55:14;27.50;71.10
1129;DHT22;553;51.038;7.216;2022-08-19T13:57:52;27.40;70.90
1129;DHT22;553;51.038;7.216;2022-08-19T14:00:21;27.40;70.00
1129;DHT22;553;51.038;7.216;2022-08-19T14:02:51;27.50;69.90
1129;DHT22;553;51.038;7.216;2022-08-19T14:05:19;27.60;69.70
1129;DHT22;553;51.038;7.216;2022-08-19T14:07:46;27.60;70.00
1129;DHT22;553;51.038;7.216;2022-08-19T14:10:14;27.60;70.00
1129;DHT22;553;51.038;7.216;2022-08-19T14:12:41;27.50;70.10
1129;DHT22;553;51.038;7.216;2022-08-19T14:15:09;27.50;70.00
1129;DHT22;553;51.038;7.216;2022-08-19T14:17:41;27.50;70.10
1129;DHT22;553;51.038;7.216;2022-08-19T14:20:09;27.60;70.00
1129;DHT22;553;51.038;7.216;2022-08-19T14:22:44;27.80;69.70
1129;DHT22;553;51.038;7.216;2022-08-19T14:25:18;27.80;68.60
1129;DHT22;553;51.038;7.216;2022-08-19T14:27:45;27.90;68.30
1129;DHT22;553;51.038;7.216;2022-08-19T14:30:14;27.80;68.20
1129;DHT22;553;51.038;7.216;2022-08-19T14:32:41;27.70;68.00
1129;DHT22;553;51.038;7.216;2022-08-19T14:35:11;27.80;68.60
1129;DHT22;553;51.038;7.216;2022-08-19T14:37:39;27.70;67.80
1129;DHT22;553;51.038;7.216;2022-08-19T14:40:13;27.80;67.70
1129;DHT22;553;51.038;7.216;2022-08-19T14:42:41;27.80;67.30
1129;DHT22;553;51.038;7.216;2022-08-19T14:45:09;27.80;67.20
1129;DHT22;553;51.038;7.216;2022-08-19T14:47:38;27.80;67.20
1129;DHT22;553;51.038;7.216;2022-08-19T14:50:07;27.80;67.60
1129;DHT22;553;51.038;7.216;2022-08-19T14:52:43;27.80;67.80
1129;DHT22;553;51.038;7.216;2022-08-19T14:55:10;27.70;67.80
1129;DHT22;553;51.038;7.216;2022-08-19T14:57:37;27.70;68.00
1129;DHT22;553;51.038;7.216;2022-08-19T15:00:04;27.70;68.00
1129;DHT22;553;51.038;7.216;2022-08-19T15:02:31;27.70;68.20
1129;DHT22;553;51.038;7.216;2022-08-19T15:05:00;27.80;68.30
1129;DHT22;553;51.038;7.216;2022-08-19T15:07:28;27.90;66.80
1129;DHT22;553;51.038;7.216;2022-08-19T15:09:56;27.90;66.10
1129;DHT22;553;51.038;7.216;2022-08-19T15:12:23;27.90;66.50
1129;DHT22;553;51.038;7.216;2022-08-19T15:14:50;27.90;65.70
1129;DHT22;553;51.038;7.216;2022-08-19T15:17:22;28.00;66.30
1129;DHT22;553;51.038;7.216;2022-08-19T15:20:11;28.00;65.80
1129;DHT22;553;51.038;7.216;2022-08-19T15:22:40;27.80;66.20
1129;DHT22;553;51.038;7.216;2022-08-19T15:25:10;27.90;65.80
1129;DHT22;553;51.038;7.216;2022-08-19T15:27:40;27.90;65.80
1129;DHT22;553;51.038;7.216;2022-08-19T15:30:08;27.80;66.50
1129;DHT22;553;51.038;7.216;2022-08-19T15:32:37;27.90;66.00
1129;DHT22;553;51.038;7.216;2022-08-19T15:35:06;27.80;66.30
1129;DHT22;553;51.038;7.216;2022-08-19T15:37:33;27.80;67.10
1129;DHT22;553;51.038;7.216;2022-08-19T15:40:04;27.70;67.10
1129;DHT22;553;51.038;7.216;2022-08-19T15:42:32;27.60;66.70
1129;DHT22;553;51.038;7.216;2022-08-19T15:45:01;27.50;67.10
1129;DHT22;553;51.038;7.216;2022-08-19T15:47:29;27.50;67.00
1129;DHT22;553;51.038;7.216;2022-08-19T15:50:18;27.40;67.10
1129;DHT22;553;51.038;7.216;2022-08-19T15:52:47;27.40;67.40
1129;DHT22;553;51.038;7.216;2022-08-19T15:55:17;27.40;67.60
1129;DHT22;553;51.038;7.216;2022-08-19T15:58:08;27.40;67.20
1129;DHT22;553;51.038;7.216;2022-08-19T16:00:57;27.50;67.10
1129;DHT22;553;51.038;7.216;2022-08-19T16:03:50;27.50;67.10
1129;DHT22;553;51.038;7.216;2022-08-19T16:06:46;27.50;66.70
1129;DHT22;553;51.038;7.216;2022-08-19T16:09:15;27.40;66.80
1129;DHT22;553;51.038;7.216;2022-08-19T16:11:42;27.50;66.70
1129;DHT22;553;51.038;7.216;2022-08-19T16:14:13;27.50;66.80
1129;DHT22;553;51.038;7.216;2022-08-19T16:16:40;27.50;66.10
1129;DHT22;553;51.038;7.216;2022-08-19T16:19:08;27.60;66.30
1129;DHT22;553;51.038;7.216;2022-08-19T16:21:38;27.50;66.80
1129;DHT22;553;51.038;7.216;2022-08-19T16:24:09;27.50;66.30
1129;DHT22;553;51.038;7.216;2022-08-19T16:26:36;27.50;66.10
1129;DHT22;553;51.038;7.216;2022-08-19T16:29:04;27.50;66.30
1129;DHT22;553;51.038;7.216;2022-08-19T16:31:38;27.40;65.70
1129;DHT22;553;51.038;7.216;2022-08-19T16:34:05;27.30;66.60
1129;DHT22;553;51.038;7.216;2022-08-19T16:36:32;27.20;66.40
1129;DHT22;553;51.038;7.216;2022-08-19T16:38:59;27.10;66.60
1129;DHT22;553;51.038;7.216;2022-08-19T16:41:27;27.00;66.70
1129;DHT22;553;51.038;7.216;2022-08-19T16:43:54;27.10;66.90
1129;DHT22;553;51.038;7.216;2022-08-19T16:46:22;27.10;66.50
1129;DHT22;553;51.038;7.216;2022-08-19T16:48:52;27.00;66.50